Time;durP1;ratioP1;P1;durP2;ratioP2;P2;SDS_P1;SDS_P2;PMS_P1;PMS_P2;Temp;Humidity;BMP_temperature;BMP_pressure;BME280_temperature;BME280_humidity;BME280_pressure;Samples;Min_cycle;Max_cycle;Signal;HPM_P1;HPM_P2
2023/10/07 00:01:27;;;;;;;8.63;2.50;;;17.10;1.00;;;;;;5050782;28;20048;-75
2023/10/07 00:04:00;;;;;;;6.20;2.50;;;17.10;1.00;;;;;;5046064;28;20045;-76
2023/10/07 00:06:27;;;;;;;11.82;2.88;;;17.10;1.00;;;;;;5058252;28;20171;-76
2023/10/07 00:08:53;;;;;;;8.60;3.30;;;17.10;1.00;;;;;;5043266;28;20547;-76
2023/10/07 00:11:22;;;;;;;8.50;2.33;;;17.10;1.00;;;;;;5024199;28;20087;-76
2023/10/07 00:13:49;;;;;;;10.02;2.95;;;17.10;1.00;;;;;;5026452;28;20037;-76
2023/10/07 00:16:17;;;;;;;9.25;3.05;;;17.20;1.00;;;;;;5042726;28;20119;-76
2023/10/07 00:18:43;;;;;;;10.48;2.60;;;17.20;1.00;;;;;;5033694;28;20068;-76
2023/10/07 00:21:15;;;;;;;7.68;2.40;;;17.20;1.00;;;;;;5032203;28;20055;-76
2023/10/07 00:23:42;;;;;;;8.98;3.05;;;17.20;1.00;;;;;;5026229;28;20037;-76
2023/10/07 00:26:09;;;;;;;9.30;2.38;;;17.20;1.00;;;;;;5027537;28;20033;-76
2023/10/07 00:28:35;;;;;;;6.82;1.88;;;17.20;1.00;;;;;;5045464;28;20064;-76
2023/10/07 00:31:06;;;;;;;10.93;3.78;;;17.20;1.00;;;;;;5028984;28;20037;-76
2023/10/07 00:34:02;;;;;;;12.27;2.85;;;17.20;1.00;;;;;;5026926;28;20453;-76
2023/10/07 00:39:03;;;;;;;16.73;3.22;;;17.30;1.00;;;;;;5043416;28;20040;-75
2023/10/07 00:41:37;;;;;;;13.95;3.20;;;17.20;1.00;;;;;;5031278;28;20089;-76
2023/10/07 00:44:31;;;;;;;6.45;2.30;;;17.30;1.00;;;;;;5046556;28;20048;-76
2023/10/07 00:52:41;;;;;;;8.88;2.63;;;17.20;1.00;;;;;;5041224;28;20056;-75
2023/10/07 00:55:17;;;;;;;11.68;2.72;;;17.30;1.00;;;;;;5027206;28;20045;-76
2023/10/07 00:57:48;;;;;;;11.23;2.67;;;17.30;1.00;;;;;;5045593;28;20045;-76
2023/10/07 01:02:45;;;;;;;13.02;3.15;;;17.30;1.00;;;;;;5052723;28;20075;-76
2023/10/07 01:05:26;;;;;;;9.20;3.00;;;17.30;1.00;;;;;;5031452;28;20606;-76
2023/10/07 01:07:53;;;;;;;10.45;2.45;;;17.30;1.00;;;;;;5044761;28;20049;-76
2023/10/07 01:10:31;;;;;;;16.75;3.17;;;17.30;1.00;;;;;;5043821;28;20518;-76
2023/10/07 01:13:02;;;;;;;9.40;2.85;;;17.20;1.00;;;;;;5043314;28;20150;-76
2023/10/07 01:15:30;;;;;;;11.00;2.60;;;17.20;1.00;;;;;;5048622;28;20094;-76
2023/10/07 01:17:57;;;;;;;7.07;2.72;;;17.20;1.00;;;;;;5029764;28;20072;-76
2023/10/07 01:20:38;;;;;;;12.75;3.28;;;17.10;1.00;;;;;;5040279;28;20042;-76
2023/10/07 01:23:04;;;;;;;9.55;2.67;;;17.10;1.00;;;;;;5037056;28;20037;-76
2023/10/07 01:25:34;;;;;;;16.45;2.42;;;17.00;1.00;;;;;;5047823;28;20441;-76
2023/10/07 01:28:01;;;;;;;11.20;3.00;;;17.00;1.00;;;;;;5030295;28;20045;-77
2023/10/07 01:30:29;;;;;;;8.98;3.10;;;16.90;1.00;;;;;;5036260;28;20040;-76
2023/10/07 01:35:47;;;;;;;11.73;2.70;;;16.70;38.10;;;;;;5049900;28;20580;-76
2023/10/07 01:38:18;;;;;;;11.25;3.17;;;16.70;87.30;;;;;;5042956;28;20090;-76
2023/10/07 01:43:19;;;;;;;8.07;2.40;;;16.60;99.90;;;;;;5063300;28;20045;-76
2023/10/07 01:45:48;;;;;;;11.68;3.50;;;16.60;99.90;;;;;;5047843;28;20048;-75
2023/10/07 01:48:17;;;;;;;17.10;3.22;;;16.60;99.90;;;;;;5047438;28;20128;-77
2023/10/07 01:50:44;;;;;;;9.25;2.95;;;16.70;99.90;;;;;;5032862;28;20048;-76
2023/10/07 01:53:11;;;;;;;10.98;3.03;;;16.70;99.90;;;;;;5030539;28;20052;-75
2023/10/07 01:55:44;;;;;;;12.43;2.90;;;16.80;99.90;;;;;;5047457;28;20044;-75
2023/10/07 01:58:13;;;;;;;10.45;3.30;;;16.70;99.90;;;;;;5030337;28;20052;-75
2023/10/07 02:00:51;;;;;;;11.23;3.58;;;16.80;99.90;;;;;;5048068;28;20045;-75
2023/10/07 02:03:21;;;;;;;15.95;3.10;;;16.80;99.40;;;;;;5043251;28;20040;-75
2023/10/07 02:05:48;;;;;;;12.23;2.75;;;16.80;99.90;;;;;;5029799;28;20044;-75
2023/10/07 02:08:22;;;;;;;9.77;2.95;;;16.90;96.90;;;;;;5043311;28;20049;-75
2023/10/07 02:10:59;;;;;;;12.73;3.30;;;17.00;90.90;;;;;;5043757;28;20048;-75
2023/10/07 02:13:30;;;;;;;12.23;3.42;;;17.00;80.10;;;;;;5058749;28;20127;-75
2023/10/07 02:15:56;;;;;;;9.90;2.80;;;17.10;71.00;;;;;;5036116;28;21558;-75
2023/10/07 02:18:22;;;;;;;13.50;2.97;;;17.10;58.50;;;;;;5050558;28;20131;-75
2023/10/07 02:20:50;;;;;;;8.35;2.42;;;17.20;51.80;;;;;;5038035;28;20128;-75
2023/10/07 02:23:37;;;;;;;9.70;3.10;;;17.20;57.70;;;;;;5048369;28;20063;-75
2023/10/07 02:26:07;;;;;;;9.68;2.50;;;17.30;25.30;;;;;;5025017;28;20033;-75
2023/10/07 02:28:35;;;;;;;14.10;4.25;;;17.30;22.50;;;;;;5049032;28;20693;-75
2023/10/07 02:31:15;;;;;;;10.90;3.08;;;17.40;16.00;;;;;;5044809;28;20120;-75
2023/10/07 02:33:42;;;;;;;11.82;3.72;;;17.30;7.10;;;;;;5047699;28;20037;-75
2023/10/07 02:36:32;;;;;;;7.65;2.78;;;17.40;14.00;;;;;;5042026;28;20660;-75
2023/10/07 02:39:04;;;;;;;10.80;3.47;;;17.40;3.10;;;;;;5045145;28;20037;-75
2023/10/07 02:41:34;;;;;;;9.00;2.78;;;17.40;1.00;;;;;;5034763;28;20041;-75
2023/10/07 02:44:09;;;;;;;10.73;2.83;;;17.40;1.00;;;;;;5027307;28;20060;-76
2023/10/07 02:46:37;;;;;;;8.77;2.55;;;17.40;1.00;;;;;;5058673;28;20045;-75
2023/10/07 02:49:09;;;;;;;8.27;2.75;;;17.50;1.00;;;;;;5031872;28;20479;-75
2023/10/07 02:51:39;;;;;;;9.80;2.80;;;17.50;1.00;;;;;;5056856;28;20182;-75
2023/10/07 02:54:19;;;;;;;8.85;2.65;;;17.50;1.00;;;;;;5046139;28;20633;-76
2023/10/07 02:57:01;;;;;;;13.65;2.83;;;17.50;1.00;;;;;;5045006;28;20112;-75
2023/10/07 02:59:35;;;;;;;6.65;2.20;;;17.50;1.00;;;;;;5044449;28;20163;-75
2023/10/07 03:02:12;;;;;;;10.65;3.42;;;17.60;1.00;;;;;;5038484;28;20412;-75
2023/10/07 03:04:58;;;;;;;11.18;2.47;;;17.60;1.00;;;;;;5028349;28;20037;-75
2023/10/07 03:07:27;;;;;;;10.43;2.40;;;17.60;1.00;;;;;;5029990;28;20083;-75
2023/10/07 03:10:05;;;;;;;8.82;3.92;;;17.60;1.00;;;;;;5037910;28;20037;-75
2023/10/07 03:12:31;;;;;;;7.43;2.15;;;17.60;1.00;;;;;;5030605;28;20131;-76
2023/10/07 03:15:00;;;;;;;8.20;2.85;;;17.60;1.00;;;;;;5027521;28;20086;-75
2023/10/07 03:17:39;;;;;;;10.45;2.50;;;17.60;1.00;;;;;;5033533;28;20101;-75
2023/10/07 03:28:24;;;;;;;10.27;2.85;;;17.60;1.00;;;;;;5048504;28;20097;-75
2023/10/07 03:30:55;;;;;;;5.95;2.15;;;17.60;1.00;;;;;;5046185;28;20491;-76
2023/10/07 03:33:24;;;;;;;6.80;2.05;;;17.60;1.00;;;;;;5062434;28;20118;-75
2023/10/07 03:38:25;;;;;;;8.38;2.03;;;17.60;1.00;;;;;;5044479;28;20052;-76
2023/10/07 03:40:55;;;;;;;7.60;2.28;;;17.50;1.00;;;;;;5030930;28;20450;-75
2023/10/07 03:43:28;;;;;;;10.20;2.55;;;17.60;1.00;;;;;;5015255;28;20045;-75
2023/10/07 03:45:54;;;;;;;7.95;2.30;;;17.60;1.00;;;;;;5029746;28;20060;-75
2023/10/07 03:48:30;;;;;;;6.72;2.10;;;17.60;1.00;;;;;;5029055;28;20041;-75
2023/10/07 03:51:08;;;;;;;8.30;2.10;;;17.60;1.00;;;;;;5019741;28;20041;-76
2023/10/07 03:53:44;;;;;;;13.57;2.58;;;17.60;1.00;;;;;;5039167;28;20084;-75
2023/10/07 03:56:14;;;;;;;10.07;2.92;;;17.60;1.00;;;;;;5026012;28;20411;-75
2023/10/07 03:58:43;;;;;;;9.85;2.63;;;17.60;1.00;;;;;;5027453;28;20043;-76
2023/10/07 04:01:16;;;;;;;9.82;2.97;;;17.60;1.00;;;;;;5040762;28;20396;-75
2023/10/07 04:03:52;;;;;;;10.02;2.45;;;17.60;1.00;;;;;;5041788;28;20136;-76
2023/10/07 04:06:27;;;;;;;7.90;2.47;;;17.60;1.00;;;;;;5041704;28;20052;-75
2023/10/07 04:08:56;;;;;;;12.33;3.27;;;17.60;1.00;;;;;;5044882;28;20041;-74
2023/10/07 04:11:26;;;;;;;9.05;2.67;;;17.50;1.00;;;;;;5026663;28;20299;-75
2023/10/07 04:16:37;;;;;;;8.48;2.35;;;17.60;1.00;;;;;;5054257;28;20064;-75
2023/10/07 04:21:40;;;;;;;6.65;2.00;;;17.60;1.00;;;;;;5035574;28;20485;-75
2023/10/07 04:24:10;;;;;;;5.38;2.10;;;17.60;1.00;;;;;;5040025;28;20045;-75
2023/10/07 04:26:40;;;;;;;7.75;2.50;;;17.60;1.00;;;;;;5026909;28;20099;-75
2023/10/07 04:29:16;;;;;;;8.18;2.10;;;17.60;1.00;;;;;;5046011;28;20061;-75
2023/10/07 04:31:47;;;;;;;6.65;2.28;;;17.60;1.00;;;;;;5021397;28;20075;-75
2023/10/07 04:34:17;;;;;;;7.05;2.08;;;17.60;1.00;;;;;;5038345;28;20127;-75
2023/10/07 04:39:38;;;;;;;8.73;2.35;;;17.60;1.00;;;;;;5040495;28;20045;-75
2023/10/07 04:42:20;;;;;;;6.45;2.30;;;17.60;1.00;;;;;;5051447;28;20048;-75
2023/10/07 04:47:34;;;;;;;9.75;2.20;;;17.60;1.00;;;;;;5045862;28;20044;-75
2023/10/07 04:52:30;;;;;;;8.85;2.05;;;17.60;1.00;;;;;;5042665;28;20060;-75
2023/10/07 04:55:01;;;;;;;9.15;3.35;;;17.60;1.00;;;;;;5026735;28;20052;-75
2023/10/07 04:57:44;;;;;;;10.25;2.58;;;17.60;1.00;;;;;;5045645;28;20041;-75
2023/10/07 05:01:04;;;;;;;6.30;2.30;;;17.60;1.00;;;;;;5043589;28;20037;-75
2023/10/07 05:03:00;;;;;;;9.93;2.45;;;17.60;1.00;;;;;;5034216;28;20432;-75
2023/10/07 05:05:30;;;;;;;8.50;2.40;;;17.60;1.00;;;;;;5027737;28;20261;-75
2023/10/07 05:08:11;;;;;;;9.77;2.30;;;17.60;1.00;;;;;;5043368;28;20093;-75
2023/10/07 05:10:43;;;;;;;6.68;2.17;;;17.60;1.00;;;;;;5019913;28;20495;-75
2023/10/07 05:13:10;;;;;;;7.50;2.95;;;17.50;1.00;;;;;;5040050;28;20045;-75
2023/10/07 05:15:38;;;;;;;7.45;2.42;;;17.60;1.00;;;;;;5040774;28;20048;-75
2023/10/07 05:18:05;;;;;;;10.13;2.72;;;17.50;1.00;;;;;;5026433;28;20028;-75
2023/10/07 05:20:37;;;;;;;7.97;2.95;;;17.50;1.00;;;;;;5040475;28;20077;-75
2023/10/07 05:23:04;;;;;;;10.35;2.95;;;17.50;1.00;;;;;;5045966;28;20531;-75
2023/10/07 05:25:38;;;;;;;9.88;3.45;;;17.50;1.00;;;;;;5031144;28;20412;-76
2023/10/07 05:28:10;;;;;;;6.35;2.17;;;17.50;1.00;;;;;;5052571;28;20658;-75
2023/10/07 05:30:50;;;;;;;4.50;2.00;;;17.50;1.00;;;;;;5042040;28;20102;-75
2023/10/07 05:33:16;;;;;;;14.80;2.28;;;17.50;1.00;;;;;;5036049;28;20040;-75
2023/10/07 05:35:43;;;;;;;4.10;1.90;;;17.50;1.00;;;;;;5024127;28;20140;-75
2023/10/07 05:38:12;;;;;;;8.88;2.28;;;17.50;1.00;;;;;;5028927;28;20338;-76
2023/10/07 05:40:38;;;;;;;5.72;2.25;;;17.50;1.00;;;;;;5043674;28;20047;-75
2023/10/07 05:43:08;;;;;;;9.10;2.55;;;17.50;1.00;;;;;;5044527;28;20033;-75
2023/10/07 05:45:35;;;;;;;12.65;2.95;;;17.50;1.00;;;;;;5022137;28;20068;-75
2023/10/07 05:48:01;;;;;;;6.93;2.25;;;17.40;1.00;;;;;;5032555;28;20128;-75
2023/10/07 05:50:32;;;;;;;6.15;2.17;;;17.40;1.00;;;;;;5048248;28;20034;-75
2023/10/07 05:52:59;;;;;;;7.97;2.63;;;17.40;1.00;;;;;;5051603;28;20056;-75
2023/10/07 05:55:25;;;;;;;8.40;2.30;;;17.50;1.00;;;;;;5024642;28;20073;-75
2023/10/07 05:57:52;;;;;;;9.88;2.70;;;17.40;1.00;;;;;;5041793;28;20075;-75
2023/10/07 06:00:18;;;;;;;6.55;2.60;;;17.40;1.00;;;;;;5031929;28;20581;-75
2023/10/07 06:02:44;;;;;;;9.43;3.55;;;17.40;1.00;;;;;;5035767;28;20082;-76
2023/10/07 06:05:12;;;;;;;7.80;2.38;;;17.40;1.00;;;;;;5046309;28;20116;-75
2023/10/07 06:07:41;;;;;;;8.50;2.83;;;17.40;1.00;;;;;;5038988;28;20047;-75
2023/10/07 06:10:10;;;;;;;6.68;2.40;;;17.40;1.00;;;;;;5032347;28;20053;-75
2023/10/07 06:12:36;;;;;;;5.05;2.17;;;17.40;1.00;;;;;;5030616;28;21942;-75
2023/10/07 06:15:08;;;;;;;10.05;2.45;;;17.40;1.00;;;;;;5046995;28;20044;-75
2023/10/07 06:17:35;;;;;;;5.53;2.40;;;17.30;1.00;;;;;;5044453;28;20511;-75
2023/10/07 06:20:14;;;;;;;11.35;2.60;;;17.30;1.00;;;;;;5029548;28;21040;-75
2023/10/07 06:22:45;;;;;;;10.85;3.28;;;17.20;1.60;;;;;;5048209;28;20116;-75
2023/10/07 06:25:17;;;;;;;7.38;2.25;;;17.20;11.80;;;;;;5054214;28;20035;-75
2023/10/07 06:27:43;;;;;;;6.50;2.03;;;17.20;14.80;;;;;;5042648;28;20037;-76
2023/10/07 06:30:20;;;;;;;8.77;2.25;;;17.20;16.30;;;;;;5054111;28;20040;-76
2023/10/07 06:32:55;;;;;;;11.88;2.92;;;17.30;16.20;;;;;;5044065;28;20041;-76
2023/10/07 06:35:23;;;;;;;10.98;2.75;;;17.20;17.30;;;;;;5026867;28;20191;-75
2023/10/07 06:37:51;;;;;;;6.22;2.35;;;17.20;18.00;;;;;;5040285;28;20503;-75
2023/10/07 06:40:28;;;;;;;7.32;2.42;;;17.20;18.10;;;;;;5043638;28;20065;-76
2023/10/07 06:42:56;;;;;;;7.88;2.30;;;17.20;17.60;;;;;;5029915;28;20492;-76
2023/10/07 06:45:22;;;;;;;9.25;3.08;;;17.20;17.90;;;;;;5031063;28;20041;-75
2023/10/07 06:47:48;;;;;;;11.43;2.55;;;17.30;18.70;;;;;;5045828;28;20036;-75
2023/10/07 06:50:19;;;;;;;9.63;2.90;;;17.30;20.60;;;;;;5044515;28;20534;-75
2023/10/07 06:52:47;;;;;;;11.75;2.63;;;17.20;23.00;;;;;;5020474;28;20085;-76
2023/10/07 06:55:15;;;;;;;7.88;2.20;;;17.20;25.80;;;;;;5022452;28;20128;-76
2023/10/07 06:57:47;;;;;;;13.32;2.65;;;17.30;27.80;;;;;;5043106;28;20103;-75
2023/10/07 07:00:37;;;;;;;6.55;2.72;;;17.30;27.30;;;;;;5030289;28;20139;-75
2023/10/07 07:03:09;;;;;;;9.65;2.60;;;17.30;25.90;;;;;;5044284;28;20049;-75
2023/10/07 07:05:35;;;;;;;9.10;2.65;;;17.40;22.20;;;;;;5048230;28;20044;-75
2023/10/07 07:08:03;;;;;;;16.58;2.75;;;17.40;15.10;;;;;;5045149;28;20046;-75
2023/10/07 07:10:32;;;;;;;15.52;3.17;;;17.40;11.30;;;;;;5032627;28;20475;-75
2023/10/07 07:13:34;;;;;;;9.60;2.90;;;17.40;7.20;;;;;;5043627;28;20033;-74
2023/10/07 07:15:57;;;;;;;8.80;2.95;;;17.50;4.90;;;;;;5048960;28;20056;-74
2023/10/07 07:18:26;;;;;;;11.23;3.20;;;17.60;1.00;;;;;;5043895;28;20075;-75
2023/10/07 07:21:13;;;;;;;7.68;2.60;;;17.60;1.00;;;;;;5039202;28;20053;-75
2023/10/07 07:23:45;;;;;;;12.32;2.75;;;17.70;1.00;;;;;;5018583;28;20041;-75
2023/10/07 07:26:12;;;;;;;9.75;3.70;;;17.80;1.00;;;;;;5029965;28;20040;-75
2023/10/07 07:28:44;;;;;;;8.50;2.60;;;17.90;1.00;;;;;;5035597;28;20084;-76
2023/10/07 07:31:11;;;;;;;9.32;2.88;;;18.00;1.00;;;;;;5046553;28;20040;-75
2023/10/07 07:33:38;;;;;;;10.95;3.03;;;18.00;1.00;;;;;;5026866;28;20067;-75
2023/10/07 07:36:37;;;;;;;12.35;3.22;;;18.00;1.00;;;;;;5052705;28;20041;-75
2023/10/07 07:39:09;;;;;;;10.25;2.65;;;18.00;1.00;;;;;;5022315;28;20041;-76
2023/10/07 07:41:38;;;;;;;8.75;2.92;;;18.00;1.00;;;;;;5028086;28;20075;-76
2023/10/07 07:44:11;;;;;;;6.15;2.67;;;18.00;1.00;;;;;;5056772;28;20036;-76
2023/10/07 07:46:51;;;;;;;6.47;2.28;;;18.00;1.00;;;;;;5043742;28;20668;-76
2023/10/07 07:49:19;;;;;;;7.10;2.50;;;18.20;1.00;;;;;;5042417;28;20048;-75
2023/10/07 07:51:47;;;;;;;9.05;2.80;;;18.30;1.00;;;;;;5044171;28;20088;-75
2023/10/07 07:54:15;;;;;;;8.85;2.72;;;18.30;1.00;;;;;;5027858;28;20056;-76
2023/10/07 07:56:42;;;;;;;8.63;2.65;;;18.40;1.00;;;;;;5027096;28;20047;-75
2023/10/07 07:59:13;;;;;;;8.18;2.88;;;18.40;1.00;;;;;;5044988;28;20048;-76
2023/10/07 08:02:12;;;;;;;9.52;2.60;;;18.40;1.00;;;;;;5057437;28;20470;-75
2023/10/07 08:04:43;;;;;;;8.32;2.17;;;18.40;99.90;;;;;;5039660;28;20065;-75
2023/10/07 08:07:27;;;;;;;6.72;2.20;;;18.50;1.00;;;;;;5041221;28;20509;-76
2023/10/07 08:09:55;;;;;;;10.93;2.80;;;18.50;99.90;;;;;;5011245;28;20492;-75
2023/10/07 08:12:30;;;;;;;9.55;2.40;;;18.60;99.90;;;;;;5011039;28;20042;-75
2023/10/07 08:15:38;;;;;;;9.18;2.72;;;18.60;99.90;;;;;;5022383;28;20039;-75
2023/10/07 08:17:56;;;;;;;10.07;2.58;;;18.60;99.90;;;;;;5040866;28;20084;-76
2023/10/07 08:20:33;;;;;;;7.97;2.42;;;18.60;99.90;;;;;;5028461;28;20048;-76
2023/10/07 08:23:07;;;;;;;9.77;2.75;;;18.70;99.90;;;;;;5030153;28;20513;-75
2023/10/07 08:25:46;;;;;;;8.23;2.22;;;18.70;99.90;;;;;;5023874;28;20056;-76
2023/10/07 08:28:19;;;;;;;6.88;2.17;;;18.50;99.90;;;;;;5039002;28;20037;-75
2023/10/07 08:30:48;;;;;;;8.63;2.67;;;18.50;99.90;;;;;;5031168;28;20048;-75
2023/10/07 08:33:15;;;;;;;8.32;3.38;;;18.50;99.90;;;;;;5040114;28;20036;-75
2023/10/07 08:35:44;;;;;;;13.75;2.47;;;18.40;99.90;;;;;;5046081;28;20035;-75
2023/10/07 08:41:05;;;;;;;7.50;2.45;;;18.50;99.90;;;;;;5045642;28;20060;-74
2023/10/07 08:43:43;;;;;;;9.25;2.95;;;18.60;99.90;;;;;;5041297;28;20487;-75
2023/10/07 08:46:12;;;;;;;12.90;2.75;;;18.70;99.90;;;;;;5042095;28;20064;-75
2023/10/07 08:48:39;;;;;;;7.57;2.47;;;18.80;99.90;;;;;;5046459;28;20083;-75
2023/10/07 08:51:17;;;;;;;6.82;2.42;;;18.80;99.90;;;;;;5027299;28;20044;-76
2023/10/07 08:53:43;;;;;;;9.30;2.47;;;18.90;99.90;;;;;;5050125;28;20072;-75
2023/10/07 08:56:09;;;;;;;11.45;2.78;;;19.00;99.90;;;;;;5030571;28;20037;-76
2023/10/07 08:58:40;;;;;;;9.25;2.65;;;19.00;99.90;;;;;;5045587;28;20036;-74
2023/10/07 09:01:07;;;;;;;9.35;2.67;;;19.10;99.90;;;;;;5034545;28;20116;-75
2023/10/07 09:03:39;;;;;;;12.77;3.67;;;19.20;99.90;;;;;;5018451;28;20396;-75
2023/10/07 09:06:09;;;;;;;5.30;2.53;;;19.30;98.30;;;;;;5049801;28;20037;-75
2023/10/07 09:08:37;;;;;;;8.90;2.38;;;19.40;99.90;;;;;;5023672;28;20041;-75
2023/10/07 09:11:07;;;;;;;6.13;2.50;;;19.40;99.90;;;;;;5055085;28;20063;-75
2023/10/07 09:13:38;;;;;;;11.02;2.72;;;19.30;32.70;;;;;;5045988;28;20087;-75
2023/10/07 09:16:07;;;;;;;13.13;4.00;;;19.10;1.00;;;;;;5045174;28;20103;-74
2023/10/07 09:18:41;;;;;;;7.55;2.60;;;19.10;91.50;;;;;;5036898;28;20450;-80
2023/10/07 09:21:18;;;;;;;8.52;2.42;;;19.10;99.40;;;;;;5045446;28;20048;-80
2023/10/07 09:23:59;;;;;;;8.02;2.55;;;19.10;99.90;;;;;;5048108;28;20640;-79
2023/10/07 09:26:36;;;;;;;10.13;2.83;;;19.00;56.20;;;;;;5040768;28;20037;-79
2023/10/07 09:29:15;;;;;;;6.45;2.53;;;19.00;99.90;;;;;;5043113;28;20128;-79
2023/10/07 09:31:56;;;;;;;9.02;2.75;;;19.10;68.00;;;;;;5032388;28;20072;-80
2023/10/07 09:37:18;;;;;;;10.07;2.67;;;19.30;12.90;;;;;;5051941;28;20041;-80
2023/10/07 09:39:54;;;;;;;12.48;3.00;;;19.30;1.00;;;;;;5043003;28;20155;-80
2023/10/07 09:42:26;;;;;;;11.73;3.10;;;19.40;1.00;;;;;;5055166;28;20044;-79
2023/10/07 09:45:00;;;;;;;11.27;2.70;;;19.30;1.00;;;;;;5029378;28;20033;-79
2023/10/07 09:47:27;;;;;;;10.18;2.67;;;19.10;1.00;;;;;;5049184;28;20528;-80
2023/10/07 09:49:58;;;;;;;12.48;3.28;;;19.20;1.00;;;;;;5018889;28;20217;-79
2023/10/07 09:52:29;;;;;;;9.35;2.85;;;19.20;1.00;;;;;;5037462;28;20057;-79
2023/10/07 09:55:20;;;;;;;7.50;2.70;;;19.30;1.00;;;;;;5063797;28;20056;-80
2023/10/07 09:58:11;;;;;;;12.00;2.63;;;19.40;1.00;;;;;;5019358;28;20052;-80
2023/10/07 10:01:05;;;;;;;11.63;2.78;;;19.40;1.00;;;;;;5028792;28;20041;-80
2023/10/07 10:03:59;;;;;;;9.40;2.45;;;19.50;1.00;;;;;;5030845;28;20071;-79
2023/10/07 10:06:39;;;;;;;11.88;2.63;;;19.50;1.00;;;;;;5024717;28;20039;-80
2023/10/07 10:09:09;;;;;;;9.77;2.35;;;19.60;1.00;;;;;;5027076;28;20036;-79
2023/10/07 10:16:57;;;;;;;6.90;2.25;;;20.10;99.90;;;;;;5043585;28;20041;-77
2023/10/07 10:19:28;;;;;;;8.27;2.88;;;20.10;99.90;;;;;;5038666;28;20049;-79
2023/10/07 10:21:54;;;;;;;9.18;2.40;;;20.10;99.90;;;;;;5026684;28;20033;-79
2023/10/07 10:24:28;;;;;;;8.48;2.45;;;20.20;99.90;;;;;;5059490;28;20509;-78
2023/10/07 10:27:13;;;;;;;10.88;2.63;;;20.10;99.90;;;;;;5036598;28;20442;-78
2023/10/07 10:30:04;;;;;;;7.25;3.22;;;20.20;99.90;;;;;;5042446;28;20032;-79
2023/10/07 10:32:35;;;;;;;14.13;2.78;;;20.20;99.90;;;;;;5042653;28;20048;-78
2023/10/07 10:35:03;;;;;;;9.43;2.75;;;20.40;99.90;;;;;;5026378;28;20048;-78
2023/10/07 10:37:32;;;;;;;11.70;2.55;;;20.60;99.90;;;;;;5046861;28;20521;-79
2023/10/07 10:40:09;;;;;;;11.98;2.70;;;20.80;99.90;;;;;;5023685;28;20037;-79
2023/10/07 10:42:47;;;;;;;9.48;2.60;;;20.80;99.90;;;;;;5023493;28;20174;-78
2023/10/07 10:45:20;;;;;;;10.70;3.00;;;20.70;99.90;;;;;;5049168;28;20438;-79
2023/10/07 10:47:52;;;;;;;9.82;2.58;;;20.70;99.90;;;;;;5044489;28;20037;-79
2023/10/07 10:50:28;;;;;;;20.35;2.90;;;20.70;99.90;;;;;;5044289;28;20113;-79
2023/10/07 10:52:55;;;;;;;8.95;2.58;;;20.70;99.90;;;;;;5059783;28;20127;-78
2023/10/07 10:55:24;;;;;;;8.65;2.65;;;20.80;99.90;;;;;;5041763;28;20614;-78
2023/10/07 10:57:51;;;;;;;9.52;2.67;;;20.80;99.90;;;;;;5033537;28;20045;-78
2023/10/07 11:00:21;;;;;;;11.70;2.45;;;20.70;99.90;;;;;;5047170;28;20048;-78
2023/10/07 11:02:51;;;;;;;9.80;2.72;;;20.70;99.90;;;;;;5042207;28;20101;-79
2023/10/07 11:05:17;;;;;;;6.53;2.10;;;20.70;99.90;;;;;;5034431;28;20091;-79
2023/10/07 11:07:46;;;;;;;7.85;2.80;;;20.70;99.90;;;;;;5026105;28;20488;-79
2023/10/07 11:10:12;;;;;;;6.20;2.10;;;20.80;99.90;;;;;;5042163;28;20045;-77
2023/10/07 11:12:40;;;;;;;9.05;2.70;;;20.80;99.90;;;;;;5045130;28;20045;-78
2023/10/07 11:15:13;;;;;;;10.48;2.72;;;20.80;99.90;;;;;;5026543;28;20037;-78
2023/10/07 11:17:53;;;;;;;9.88;2.30;;;20.80;99.90;;;;;;5030619;28;20048;-78
2023/10/07 11:20:19;;;;;;;6.00;2.70;;;20.80;99.90;;;;;;5046093;28;20049;-77
2023/10/07 11:22:46;;;;;;;10.18;2.63;;;20.80;99.90;;;;;;5040376;28;20048;-79
2023/10/07 11:25:16;;;;;;;8.18;2.58;;;20.80;99.90;;;;;;5024952;28;20060;-80
2023/10/07 11:27:42;;;;;;;7.38;2.58;;;20.70;99.90;;;;;;5043671;28;20068;-79
2023/10/07 11:30:14;;;;;;;10.13;2.42;;;20.60;99.90;;;;;;5051173;28;20047;-78
2023/10/07 11:32:42;;;;;;;11.00;3.08;;;20.40;99.90;;;;;;5027643;28;20041;-80
2023/10/07 11:35:19;;;;;;;8.15;2.80;;;20.30;99.90;;;;;;5041015;28;20133;-80
2023/10/07 11:37:58;;;;;;;10.45;2.83;;;20.10;99.90;;;;;;5045793;28;20049;-78
2023/10/07 11:40:25;;;;;;;10.00;2.78;;;20.00;99.90;;;;;;5026717;28;20037;-79
2023/10/07 11:42:52;;;;;;;8.52;2.92;;;19.90;99.90;;;;;;5026689;28;21077;-78
2023/10/07 11:45:18;;;;;;;9.82;2.72;;;19.80;99.90;;;;;;5026687;28;20040;-80
2023/10/07 11:47:44;;;;;;;4.93;2.20;;;19.70;99.90;;;;;;5030044;28;20095;-79
2023/10/07 11:50:10;;;;;;;10.93;2.92;;;19.70;99.90;;;;;;5044910;28;20403;-80
2023/10/07 11:52:37;;;;;;;11.02;2.80;;;19.80;99.90;;;;;;5027501;28;20049;-80
2023/10/07 11:55:07;;;;;;;9.57;3.53;;;20.00;99.90;;;;;;5040272;28;20053;-80
2023/10/07 11:57:37;;;;;;;14.02;3.88;;;19.90;99.90;;;;;;5058669;28;20129;-80
2023/10/07 12:00:11;;;;;;;7.88;3.00;;;19.90;99.90;;;;;;5025118;28;20124;-81
2023/10/07 12:02:39;;;;;;;9.00;3.22;;;19.80;99.90;;;;;;5041718;28;20400;-80
2023/10/07 12:05:07;;;;;;;9.73;2.80;;;19.90;99.90;;;;;;5025362;28;20041;-80
2023/10/07 12:07:36;;;;;;;7.03;3.08;;;20.00;99.90;;;;;;5041534;28;20081;-81
2023/10/07 12:10:04;;;;;;;8.10;3.15;;;19.90;99.90;;;;;;5027749;28;20036;-80
2023/10/07 12:12:32;;;;;;;9.98;2.97;;;19.90;99.90;;;;;;5042626;28;20123;-80
2023/10/07 12:14:59;;;;;;;8.85;2.72;;;20.00;99.90;;;;;;5026437;28;20045;-80
2023/10/07 12:17:25;;;;;;;7.03;3.20;;;20.30;99.90;;;;;;5026538;28;20124;-80
2023/10/07 12:19:50;;;;;;;10.38;2.85;;;20.30;99.90;;;;;;5034886;28;20115;-80
2023/10/07 12:22:19;;;;;;;9.77;2.67;;;20.40;99.90;;;;;;5039031;28;20045;-80
2023/10/07 12:24:46;;;;;;;9.88;2.72;;;20.30;99.90;;;;;;5061421;28;20032;-80
2023/10/07 12:27:12;;;;;;;9.07;3.05;;;20.20;99.90;;;;;;5050737;28;20040;-80
2023/10/07 12:29:39;;;;;;;9.60;2.88;;;20.20;99.90;;;;;;5041028;28;20487;-80
2023/10/07 12:32:04;;;;;;;9.95;2.60;;;20.00;99.90;;;;;;5011166;28;20098;-80
2023/10/07 12:34:30;;;;;;;10.40;2.60;;;20.00;99.90;;;;;;5027224;28;20147;-81
2023/10/07 12:36:56;;;;;;;9.20;2.85;;;20.20;99.90;;;;;;5045053;28;20041;-80
2023/10/07 12:39:22;;;;;;;11.07;2.42;;;20.20;99.90;;;;;;5023611;28;20036;-80
2023/10/07 12:41:48;;;;;;;9.90;3.03;;;20.10;99.90;;;;;;5040993;28;20056;-80
2023/10/07 12:44:14;;;;;;;6.57;2.45;;;19.90;99.90;;;;;;5041789;28;20037;-80
2023/10/07 12:46:41;;;;;;;10.40;3.65;;;19.90;99.90;;;;;;5019513;28;20107;-79
2023/10/07 12:49:11;;;;;;;7.72;2.63;;;19.90;99.90;;;;;;5041256;28;20696;-80
2023/10/07 12:51:45;;;;;;;12.48;3.53;;;19.70;99.90;;;;;;5037818;28;20040;-79
2023/10/07 12:54:13;;;;;;;10.65;2.95;;;19.80;99.90;;;;;;5020398;28;20052;-80
2023/10/07 12:56:42;;;;;;;10.18;3.80;;;19.90;99.90;;;;;;5028355;28;20033;-80
2023/10/07 12:59:18;;;;;;;11.30;2.90;;;19.90;99.90;;;;;;5042020;28;20048;-80
2023/10/07 13:01:52;;;;;;;9.65;2.75;;;19.90;99.90;;;;;;5031565;28;20158;-80
2023/10/07 13:04:25;;;;;;;9.25;2.90;;;20.20;99.90;;;;;;5057399;28;20599;-81
2023/10/07 13:07:03;;;;;;;13.25;2.72;;;20.50;99.90;;;;;;5029786;28;20033;-80
2023/10/07 13:09:32;;;;;;;9.35;2.28;;;20.70;99.90;;;;;;5023349;28;20033;-80
2023/10/07 13:11:58;;;;;;;8.50;2.58;;;20.70;99.90;;;;;;5045080;28;20084;-79
2023/10/07 13:14:26;;;;;;;11.40;3.00;;;20.70;71.20;;;;;;5027137;28;20041;-80
2023/10/07 13:16:58;;;;;;;8.45;2.70;;;20.50;63.70;;;;;;5029636;28;20041;-80
2023/10/07 13:19:26;;;;;;;10.07;3.47;;;20.50;94.10;;;;;;5047907;28;20045;-81
2023/10/07 13:21:57;;;;;;;7.93;2.72;;;20.40;82.00;;;;;;5026519;28;20041;-80
2023/10/07 13:24:23;;;;;;;8.77;2.70;;;20.30;62.80;;;;;;5044063;28;20049;-80
2023/10/07 13:26:49;;;;;;;9.77;2.45;;;20.20;95.10;;;;;;5045280;28;20043;-80
2023/10/07 13:29:15;;;;;;;7.53;2.75;;;20.40;94.00;;;;;;5040694;28;20055;-81
2023/10/07 13:31:40;;;;;;;7.78;2.80;;;20.50;74.10;;;;;;5046972;28;20045;-81
2023/10/07 13:34:07;;;;;;;7.05;2.92;;;20.40;75.60;;;;;;5026161;28;20038;-81
2023/10/07 13:36:38;;;;;;;4.95;2.30;;;20.30;68.20;;;;;;5048820;28;20441;-80
2023/10/07 13:39:05;;;;;;;10.20;3.40;;;20.30;63.70;;;;;;5036234;28;20462;-80
2023/10/07 13:41:31;;;;;;;10.45;2.78;;;20.20;74.60;;;;;;5031115;28;20047;-81
2023/10/07 13:43:57;;;;;;;8.27;2.53;;;20.10;91.00;;;;;;5039316;28;20033;-81
2023/10/07 13:46:23;;;;;;;13.27;3.22;;;20.20;89.50;;;;;;5030488;28;20044;-80
2023/10/07 13:48:48;;;;;;;7.78;3.40;;;20.20;84.10;;;;;;5043460;28;20033;-81
2023/10/07 13:51:15;;;;;;;6.63;2.60;;;20.30;95.40;;;;;;5040811;28;20040;-80
2023/10/07 13:56:45;;;;;;;6.95;2.60;;;20.40;90.40;;;;;;5061227;28;20087;-81
2023/10/07 13:59:11;;;;;;;9.40;2.53;;;20.40;87.90;;;;;;5045087;28;20613;-80
2023/10/07 14:01:37;;;;;;;5.93;2.50;;;20.30;87.70;;;;;;5051993;28;20417;-80
2023/10/07 14:04:03;;;;;;;8.70;2.35;;;20.20;96.30;;;;;;5025908;28;20037;-79